createdAt,value
2019-02-09T00:03:53.130Z,284.08
2019-02-09T00:09:02.275Z,266.67
2019-02-09T00:14:11.420Z,256.97
2019-02-09T00:19:20.555Z,256.59
2019-02-09T00:24:29.662Z,259.08
2019-02-09T00:29:46.178Z,323.05
2019-02-09T00:34:47.440Z,277.15
2019-02-09T00:39:56.665Z,316.14
2019-02-09T00:45:05.738Z,318.69
2019-02-09T00:50:14.864Z,322.63
2019-02-09T00:55:24.036Z,324.74
2019-02-09T01:00:33.156Z,326.09
2019-02-09T01:05:42.230Z,260.91
2019-02-09T01:10:51.361Z,355.75
2019-02-09T01:16:00.490Z,341.92
2019-02-09T01:21:09.668Z,278.13
2019-02-09T01:26:18.720Z,374.18
2019-02-09T01:31:27.898Z,369.52
2019-02-09T01:36:36.981Z,369.49
2019-02-09T01:41:46.093Z,361.55
2019-02-09T01:46:55.178Z,344.49
2019-02-09T01:52:04.358Z,306.04
2019-02-09T01:57:13.465Z,307.06
2019-02-09T02:02:22.596Z,302.67
2019-02-09T02:07:31.680Z,351.45
2019-02-09T02:12:40.832Z,343.82
2019-02-09T02:17:49.918Z,324.71
2019-02-09T02:22:59.019Z,341.29
2019-02-09T02:28:08.149Z,380.75
2019-02-09T02:33:17.301Z,394.16
2019-02-09T02:38:26.398Z,384.86
2019-02-09T02:43:35.609Z,280.29
2019-02-09T02:48:44.724Z,388.59
2019-02-09T02:53:53.962Z,281.53
2019-02-09T02:59:03.009Z,385.96
2019-02-09T03:04:12.282Z,396.38
2019-02-09T03:09:19.915Z,281.77
2019-02-09T03:14:29.032Z,391.85
2019-02-09T03:19:38.146Z,364.45
2019-02-09T03:24:47.376Z,391.57
2019-02-09T03:29:56.453Z,342.38
2019-02-09T03:35:05.774Z,382.25
2019-02-09T03:40:14.847Z,386.30
2019-02-09T03:45:23.987Z,395.32
2019-02-09T03:50:33.069Z,345.55
2019-02-09T03:55:42.389Z,282.98
2019-02-09T04:00:55.402Z,395.47
2019-02-09T04:06:00.085Z,396.55
2019-02-09T04:11:09.185Z,379.64
2019-02-09T04:16:18.368Z,392.34
2019-02-09T04:21:27.434Z,379.47
2019-02-09T04:26:36.565Z,387.64
2019-02-09T04:31:45.612Z,289.53
2019-02-09T04:36:54.797Z,396.09
2019-02-09T04:42:03.869Z,406.30
2019-02-09T04:47:13.013Z,396.65
2019-02-09T04:52:22.087Z,401.82
2019-02-09T04:57:31.229Z,396.20
2019-02-09T05:02:40.304Z,398.77
2019-02-09T05:07:49.630Z,404.10
2019-02-09T05:12:58.729Z,292.15
2019-02-09T05:18:07.997Z,293.78
2019-02-09T05:23:17.062Z,407.93
2019-02-09T05:28:26.312Z,391.18
2019-02-09T05:33:35.414Z,373.34
2019-02-09T05:38:44.573Z,355.82
2019-02-09T05:43:53.892Z,339.00
2019-02-09T05:49:03.089Z,362.83
2019-02-09T05:54:12.164Z,371.55
2019-02-09T05:59:21.306Z,378.77
2019-02-09T06:04:30.425Z,381.64
2019-02-09T06:09:39.702Z,394.16
2019-02-09T06:14:48.799Z,381.32
2019-02-09T06:19:57.947Z,291.95
2019-02-09T06:25:07.022Z,301.64
2019-02-09T06:30:16.267Z,421.95
2019-02-09T06:35:25.332Z,422.73
2019-02-09T06:40:34.470Z,424.04
2019-02-09T06:45:43.538Z,432.40
2019-02-09T06:50:52.700Z,431.76
2019-02-09T06:56:01.744Z,429.43
2019-02-09T07:01:11.111Z,435.30
2019-02-09T07:06:20.189Z,302.15
2019-02-09T07:11:29.340Z,427.11
2019-02-09T07:16:38.413Z,298.39
2019-02-09T07:21:47.571Z,312.54
2019-02-09T07:26:56.649Z,429.36
2019-02-09T07:32:05.838Z,300.01
2019-02-09T07:37:14.903Z,427.14
2019-02-09T07:42:24.148Z,316.32
2019-02-09T07:47:33.254Z,448.95
2019-02-09T07:52:42.336Z,444.02
2019-02-09T07:57:51.448Z,445.35
2019-02-09T08:03:00.580Z,287.13
2019-02-09T08:08:09.681Z,413.58
2019-02-09T08:13:18.936Z,421.16
2019-02-09T08:18:28.003Z,432.31
2019-02-09T08:23:37.192Z,427.86
2019-02-09T08:28:46.455Z,428.95
2019-02-09T08:33:55.618Z,302.72
2019-02-09T08:39:04.668Z,404.98
2019-02-09T08:44:13.843Z,423.53
2019-02-09T08:49:22.957Z,422.91
2019-02-09T08:54:32.054Z,406.94
2019-02-09T08:59:41.163Z,293.93
2019-02-09T09:04:50.401Z,419.64
2019-02-09T09:09:59.465Z,420.83
2019-02-09T09:15:08.690Z,429.64
2019-02-09T09:20:17.748Z,379.36
2019-02-09T09:25:26.901Z,379.68
2019-02-09T09:30:35.993Z,398.67
2019-02-09T09:35:45.275Z,309.91
2019-02-09T09:40:54.373Z,302.88
2019-02-09T09:46:03.579Z,392.43
2019-02-09T09:51:12.645Z,396.52
2019-02-09T09:56:21.884Z,381.78
2019-02-09T10:01:30.957Z,392.17
2019-02-09T10:06:40.140Z,381.15
2019-02-09T10:11:49.189Z,343.07
2019-02-09T10:16:58.445Z,331.37
2019-02-09T10:22:08.560Z,336.18
2019-02-09T10:27:07.754Z,99.90
2019-02-09T10:32:16.857Z,286.39
2019-02-09T10:37:26.168Z,102.95
2019-02-09T10:42:35.275Z,311.16
2019-02-09T10:47:44.730Z,110.65
2019-02-09T10:52:53.885Z,362.41
2019-02-09T10:58:03.030Z,290.53
2019-02-09T11:03:12.122Z,300.84
2019-02-09T11:08:21.365Z,386.23
2019-02-09T11:13:30.457Z,410.20
2019-02-09T11:18:39.588Z,414.63
2019-02-09T11:23:48.651Z,396.73
2019-02-09T11:28:57.831Z,285.38
2019-02-09T11:34:06.920Z,391.80
2019-02-09T11:39:16.299Z,386.46
2019-02-09T11:44:25.399Z,66.08
2019-02-09T11:49:34.543Z,368.74
2019-02-09T11:54:43.662Z,405.23
2019-02-09T11:59:53.013Z,53.27
2019-02-09T12:05:02.138Z,60.43
2019-02-09T12:10:11.299Z,57.41
2019-02-09T12:15:20.477Z,376.67
2019-02-09T12:20:29.684Z,387.26
2019-02-09T12:25:38.795Z,247.45
2019-02-09T12:30:48.061Z,57.95
2019-02-09T12:35:57.131Z,56.24
2019-02-09T12:41:06.293Z,49.39
2019-02-09T12:46:15.394Z,46.03
2019-02-09T12:51:24.650Z,372.94
2019-02-09T12:56:33.724Z,402.40
2019-02-09T13:01:42.931Z,387.57
2019-02-09T13:06:52.020Z,379.32
2019-02-09T13:12:01.166Z,106.70
2019-02-09T13:17:10.286Z,64.29
2019-02-09T13:22:19.541Z,356.91
2019-02-09T13:27:28.692Z,371.33
2019-02-09T13:32:37.881Z,369.44
2019-02-09T13:37:46.919Z,361.57
2019-02-09T13:42:56.326Z,102.96
2019-02-09T13:48:05.419Z,340.87
2019-02-09T13:53:14.551Z,88.00
2019-02-09T13:58:23.661Z,379.16
2019-02-09T14:03:32.951Z,371.92
2019-02-09T14:08:42.066Z,345.62
2019-02-09T14:13:51.214Z,382.90
2019-02-09T14:19:00.318Z,350.91
2019-02-09T14:24:10.540Z,290.37
2019-02-09T14:29:18.118Z,321.31
2019-02-09T14:34:27.339Z,356.59
2019-02-09T14:39:36.510Z,68.18
2019-02-09T14:44:45.817Z,373.28
2019-02-09T14:49:54.945Z,341.55
2019-02-09T14:55:04.179Z,352.78
2019-02-09T15:00:13.285Z,266.06
2019-02-09T15:05:22.430Z,91.04
2019-02-09T15:10:31.518Z,87.26
2019-02-09T15:15:40.654Z,223.38
2019-02-09T15:20:49.758Z,251.67
2019-02-09T15:25:58.871Z,306.78
2019-02-09T15:31:08.006Z,272.31
2019-02-09T15:36:17.143Z,281.59
2019-02-09T15:41:26.252Z,261.50
2019-02-09T15:46:35.440Z,136.75
2019-02-09T15:51:44.541Z,201.67
2019-02-09T15:56:53.775Z,215.73
2019-02-09T16:02:02.857Z,188.73
2019-02-09T16:07:12.010Z,146.48
2019-02-09T16:12:21.072Z,157.60
2019-02-09T16:17:30.218Z,207.12
2019-02-09T16:22:39.312Z,221.83
2019-02-09T16:27:48.463Z,207.65
2019-02-09T16:32:57.567Z,226.76
2019-02-09T16:38:06.744Z,188.36
2019-02-09T16:43:15.804Z,194.65
2019-02-09T16:48:25.068Z,189.93
2019-02-09T16:53:34.149Z,144.92
2019-02-09T16:58:43.273Z,196.49
2019-02-09T17:03:52.483Z,154.11
2019-02-09T17:09:01.623Z,177.99
2019-02-09T17:14:10.717Z,214.01
2019-02-09T17:19:19.907Z,238.62
2019-02-09T17:24:28.979Z,257.19
2019-02-09T17:29:39.313Z,231.92
2019-02-09T17:34:46.819Z,86.46
2019-02-09T17:39:55.999Z,205.15
2019-02-09T17:45:06.730Z,223.48
2019-02-09T17:50:05.562Z,262.61
2019-02-09T17:55:14.660Z,250.04
2019-02-09T18:00:23.925Z,221.95
2019-02-09T18:05:34.665Z,261.47
2019-02-09T18:10:41.769Z,265.36
2019-02-09T18:15:50.888Z,142.33
2019-02-09T18:21:00.134Z,228.60
2019-02-09T18:26:09.225Z,280.37
2019-02-09T18:31:18.330Z,275.03
2019-02-09T18:36:27.436Z,222.99
2019-02-09T18:41:36.653Z,206.85
2019-02-09T18:46:45.761Z,228.06
2019-02-09T18:51:54.932Z,84.45
2019-02-09T18:57:04.055Z,233.90
2019-02-09T19:02:13.248Z,92.86
2019-02-09T19:07:22.400Z,245.25
2019-02-09T19:12:31.535Z,229.04
2019-02-09T19:17:40.629Z,241.77
2019-02-09T19:22:49.850Z,243.26
2019-02-09T19:27:58.885Z,237.28
2019-02-09T19:33:08.167Z,231.71
2019-02-09T19:38:17.250Z,87.10
2019-02-09T19:43:26.452Z,87.65
2019-02-09T19:48:35.723Z,201.28
2019-02-09T19:53:44.942Z,223.07
2019-02-09T19:58:54.040Z,224.34
2019-02-09T20:04:03.321Z,79.95
2019-02-09T20:09:12.372Z,194.08
2019-02-09T20:14:21.634Z,199.38
2019-02-09T20:19:30.832Z,214.50
2019-02-09T20:24:40.102Z,77.67
2019-02-09T20:29:49.231Z,196.74
2019-02-09T20:34:58.434Z,212.13
2019-02-09T20:40:07.525Z,221.56
2019-02-09T20:45:16.633Z,74.73
2019-02-09T20:50:25.733Z,81.77
2019-02-09T20:55:34.833Z,232.82
2019-02-09T21:00:44.014Z,220.73
2019-02-09T21:05:53.113Z,197.23
2019-02-09T21:11:02.183Z,209.67
2019-02-09T21:16:11.310Z,201.03
2019-02-09T21:21:20.399Z,280.26
2019-02-09T21:26:29.559Z,89.52
2019-02-09T21:31:38.633Z,73.36
2019-02-09T21:36:47.794Z,224.40
2019-02-09T21:41:56.851Z,254.14
2019-02-09T21:47:05.961Z,238.53
2019-02-09T21:52:15.011Z,239.88
2019-02-09T21:57:24.297Z,224.77
2019-02-09T22:02:33.348Z,133.78
2019-02-09T22:07:42.484Z,137.35
2019-02-09T22:12:51.608Z,203.93
2019-02-09T22:18:00.701Z,114.40
2019-02-09T22:23:09.785Z,210.09
2019-02-09T22:28:19.057Z,208.15
2019-02-09T22:33:28.278Z,232.70
2019-02-09T22:38:37.394Z,216.27
2019-02-09T22:43:46.494Z,202.84
2019-02-09T22:48:55.804Z,196.50
2019-02-09T22:54:04.982Z,80.08
2019-02-09T22:59:14.241Z,81.11
2019-02-09T23:04:23.301Z,237.75
2019-02-09T23:09:32.873Z,76.09
2019-02-09T23:14:41.942Z,212.08
2019-02-09T23:19:51.062Z,224.30
2019-02-09T23:25:00.181Z,232.31
2019-02-09T23:30:09.465Z,218.08
2019-02-09T23:35:18.565Z,144.69
2019-02-09T23:40:27.816Z,201.48
2019-02-09T23:45:36.913Z,211.10
2019-02-09T23:50:46.075Z,212.06
2019-02-09T23:55:55.152Z,206.48
